sensor_id;sensor_type;location;lat;lon;timestamp;temperature;humidity
22716;DHT22;11525;51.152;4.456;2023-04-01T00:00:58;10.50;99.90
22716;DHT22;11525;51.152;4.456;2023-04-01T00:03:25;10.40;99.90
22716;DHT22;11525;51.152;4.456;2023-04-01T00:05:56;10.50;99.90
22716;DHT22;11525;51.152;4.456;2023-04-01T00:08:22;10.50;99.90
22716;DHT22;11525;51.152;4.456;2023-04-01T00:10:48;10.40;99.90
22716;DHT22;11525;51.152;4.456;2023-04-01T00:13:14;10.50;99.90
22716;DHT22;11525;51.152;4.456;2023-04-01T00:15:40;10.40;99.90
22716;DHT22;11525;51.152;4.456;2023-04-01T00:18:06;10.40;99.90
22716;DHT22;11525;51.152;4.456;2023-04-01T00:20:33;10.40;99.90
22716;DHT22;11525;51.152;4.456;2023-04-01T00:22:58;10.40;99.90
22716;DHT22;11525;51.152;4.456;2023-04-01T00:25:24;10.40;99.90
22716;DHT22;11525;51.152;4.456;2023-04-01T00:27:50;10.40;99.90
22716;DHT22;11525;51.152;4.456;2023-04-01T00:30:16;10.50;99.90
22716;DHT22;11525;51.152;4.456;2023-04-01T00:32:42;10.50;99.90
22716;DHT22;11525;51.152;4.456;2023-04-01T00:35:09;10.70;99.90
22716;DHT22;11525;51.152;4.456;2023-04-01T00:37:37;10.70;99.90
22716;DHT22;11525;51.152;4.456;2023-04-01T00:40:07;10.80;99.90
22716;DHT22;11525;51.152;4.456;2023-04-01T00:42:33;10.60;99.90
22716;DHT22;11525;51.152;4.456;2023-04-01T00:45:26;10.50;99.90
22716;DHT22;11525;51.152;4.456;2023-04-01T00:47:52;10.60;99.90
22716;DHT22;11525;51.152;4.456;2023-04-01T00:50:19;10.60;99.90
22716;DHT22;11525;51.152;4.456;2023-04-01T00:52:45;10.70;99.90
22716;DHT22;11525;51.152;4.456;2023-04-01T00:55:13;10.60;99.90
22716;DHT22;11525;51.152;4.456;2023-04-01T00:57:42;10.50;99.90
22716;DHT22;11525;51.152;4.456;2023-04-01T01:00:11;10.50;99.90
22716;DHT22;11525;51.152;4.456;2023-04-01T01:02:41;10.50;99.90
22716;DHT22;11525;51.152;4.456;2023-04-01T01:05:08;10.50;99.90
22716;DHT22;11525;51.152;4.456;2023-04-01T01:08:14;10.50;99.90
22716;DHT22;11525;51.152;4.456;2023-04-01T01:10:42;10.70;99.90
22716;DHT22;11525;51.152;4.456;2023-04-01T01:14:09;10.60;99.90
22716;DHT22;11525;51.152;4.456;2023-04-01T01:16:24;10.70;99.90
22716;DHT22;11525;51.152;4.456;2023-04-01T01:35:23;10.50;99.90
22716;DHT22;11525;51.152;4.456;2023-04-01T01:37:55;10.50;99.90
22716;DHT22;11525;51.152;4.456;2023-04-01T01:40:23;10.40;99.90
22716;DHT22;11525;51.152;4.456;2023-04-01T01:42:53;10.40;99.90
22716;DHT22;11525;51.152;4.456;2023-04-01T01:45:21;10.40;99.90
22716;DHT22;11525;51.152;4.456;2023-04-01T01:47:50;10.40;99.90
22716;DHT22;11525;51.152;4.456;2023-04-01T01:50:17;10.40;99.90
22716;DHT22;11525;51.152;4.456;2023-04-01T01:52:44;10.40;99.90
22716;DHT22;11525;51.152;4.456;2023-04-01T01:55:32;10.60;99.90
22716;DHT22;11525;51.152;4.456;2023-04-01T01:58:02;10.60;99.90
22716;DHT22;11525;51.152;4.456;2023-04-01T02:00:31;10.50;99.90
22716;DHT22;11525;51.152;4.456;2023-04-01T02:02:58;10.60;99.90
22716;DHT22;11525;51.152;4.456;2023-04-01T02:05:25;10.50;99.90
22716;DHT22;11525;51.152;4.456;2023-04-01T02:08:07;10.50;99.90
22716;DHT22;11525;51.152;4.456;2023-04-01T02:10:37;10.40;99.90
22716;DHT22;11525;51.152;4.456;2023-04-01T02:13:12;10.30;99.90
22716;DHT22;11525;51.152;4.456;2023-04-01T02:15:44;10.50;99.90
22716;DHT22;11525;51.152;4.456;2023-04-01T02:18:13;10.50;99.90
22716;DHT22;11525;51.152;4.456;2023-04-01T02:20:41;10.40;99.90
22716;DHT22;11525;51.152;4.456;2023-04-01T02:23:08;10.40;99.90
22716;DHT22;11525;51.152;4.456;2023-04-01T02:25:36;10.30;99.90
22716;DHT22;11525;51.152;4.456;2023-04-01T02:28:05;10.40;99.90
22716;DHT22;11525;51.152;4.456;2023-04-01T02:30:34;10.20;99.90
22716;DHT22;11525;51.152;4.456;2023-04-01T02:33:01;10.20;99.90
22716;DHT22;11525;51.152;4.456;2023-04-01T02:35:28;10.30;99.90
22716;DHT22;11525;51.152;4.456;2023-04-01T02:37:55;10.20;99.90
22716;DHT22;11525;51.152;4.456;2023-04-01T02:40:21;10.30;99.90
22716;DHT22;11525;51.152;4.456;2023-04-01T02:42:47;10.20;99.90
22716;DHT22;11525;51.152;4.456;2023-04-01T02:45:14;10.20;99.90
22716;DHT22;11525;51.152;4.456;2023-04-01T02:47:40;10.20;99.90
22716;DHT22;11525;51.152;4.456;2023-04-01T02:50:06;10.20;99.90
22716;DHT22;11525;51.152;4.456;2023-04-01T02:52:32;10.20;99.90
22716;DHT22;11525;51.152;4.456;2023-04-01T02:55:01;10.30;99.90
22716;DHT22;11525;51.152;4.456;2023-04-01T02:57:27;10.20;99.90
22716;DHT22;11525;51.152;4.456;2023-04-01T02:59:53;10.20;99.90
22716;DHT22;11525;51.152;4.456;2023-04-01T03:02:19;10.10;99.90
22716;DHT22;11525;51.152;4.456;2023-04-01T03:04:44;10.00;99.90
22716;DHT22;11525;51.152;4.456;2023-04-01T03:07:11;9.90;99.90
22716;DHT22;11525;51.152;4.456;2023-04-01T03:09:37;10.00;99.90
22716;DHT22;11525;51.152;4.456;2023-04-01T03:12:04;10.10;99.90
22716;DHT22;11525;51.152;4.456;2023-04-01T03:14:30;10.10;99.90
22716;DHT22;11525;51.152;4.456;2023-04-01T03:16:56;10.10;99.90
22716;DHT22;11525;51.152;4.456;2023-04-01T03:19:21;10.10;99.90
22716;DHT22;11525;51.152;4.456;2023-04-01T03:21:47;10.10;99.90
22716;DHT22;11525;51.152;4.456;2023-04-01T03:24:13;9.90;99.90
22716;DHT22;11525;51.152;4.456;2023-04-01T03:26:39;9.90;99.90
22716;DHT22;11525;51.152;4.456;2023-04-01T03:29:05;10.00;99.90
22716;DHT22;11525;51.152;4.456;2023-04-01T03:31:30;9.80;99.90
22716;DHT22;11525;51.152;4.456;2023-04-01T03:33:56;9.80;99.90
22716;DHT22;11525;51.152;4.456;2023-04-01T03:36:22;9.90;99.90
22716;DHT22;11525;51.152;4.456;2023-04-01T03:38:48;9.80;99.90
22716;DHT22;11525;51.152;4.456;2023-04-01T03:41:17;9.90;99.90
22716;DHT22;11525;51.152;4.456;2023-04-01T03:43:43;9.80;99.90
22716;DHT22;11525;51.152;4.456;2023-04-01T03:46:10;9.90;99.90
22716;DHT22;11525;51.152;4.456;2023-04-01T03:48:36;10.00;99.90
22716;DHT22;11525;51.152;4.456;2023-04-01T03:51:05;10.10;99.90
22716;DHT22;11525;51.152;4.456;2023-04-01T03:53:31;10.00;99.90
22716;DHT22;11525;51.152;4.456;2023-04-01T03:55:57;10.00;99.90
22716;DHT22;11525;51.152;4.456;2023-04-01T03:58:23;10.00;99.90
22716;DHT22;11525;51.152;4.456;2023-04-01T04:00:48;9.80;99.90
22716;DHT22;11525;51.152;4.456;2023-04-01T04:03:14;9.90;99.90
22716;DHT22;11525;51.152;4.456;2023-04-01T04:05:49;9.90;99.90
22716;DHT22;11525;51.152;4.456;2023-04-01T04:08:15;9.90;99.90
22716;DHT22;11525;51.152;4.456;2023-04-01T04:10:41;9.90;99.90
22716;DHT22;11525;51.152;4.456;2023-04-01T04:13:07;10.00;99.90
22716;DHT22;11525;51.152;4.456;2023-04-01T04:15:33;9.90;99.90
22716;DHT22;11525;51.152;4.456;2023-04-01T04:17:59;9.80;99.90
22716;DHT22;11525;51.152;4.456;2023-04-01T04:20:24;9.80;99.90
22716;DHT22;11525;51.152;4.456;2023-04-01T04:22:50;9.80;99.90
22716;DHT22;11525;51.152;4.456;2023-04-01T04:25:16;9.90;99.90
22716;DHT22;11525;51.152;4.456;2023-04-01T04:27:42;10.00;99.90
22716;DHT22;11525;51.152;4.456;2023-04-01T04:30:08;10.00;99.90
22716;DHT22;11525;51.152;4.456;2023-04-01T04:32:34;9.90;99.90
22716;DHT22;11525;51.152;4.456;2023-04-01T04:35:00;9.90;99.90
22716;DHT22;11525;51.152;4.456;2023-04-01T04:37:26;10.10;99.90
22716;DHT22;11525;51.152;4.456;2023-04-01T04:39:52;10.00;99.90
22716;DHT22;11525;51.152;4.456;2023-04-01T04:42:18;9.90;99.90
22716;DHT22;11525;51.152;4.456;2023-04-01T04:44:43;9.90;99.90
22716;DHT22;11525;51.152;4.456;2023-04-01T04:47:09;9.90;99.90
22716;DHT22;11525;51.152;4.456;2023-04-01T04:49:35;9.90;99.90
22716;DHT22;11525;51.152;4.456;2023-04-01T04:52:01;9.70;99.90
22716;DHT22;11525;51.152;4.456;2023-04-01T04:54:26;9.80;99.90
22716;DHT22;11525;51.152;4.456;2023-04-01T04:56:53;9.70;99.90
22716;DHT22;11525;51.152;4.456;2023-04-01T04:59:19;9.70;99.90
22716;DHT22;11525;51.152;4.456;2023-04-01T05:01:45;9.70;99.90
22716;DHT22;11525;51.152;4.456;2023-04-01T05:04:10;9.60;99.90
22716;DHT22;11525;51.152;4.456;2023-04-01T05:06:36;9.70;99.90
22716;DHT22;11525;51.152;4.456;2023-04-01T05:09:02;9.60;99.90
22716;DHT22;11525;51.152;4.456;2023-04-01T05:11:27;9.60;99.90
22716;DHT22;11525;51.152;4.456;2023-04-01T05:13:53;9.60;99.90
22716;DHT22;11525;51.152;4.456;2023-04-01T05:16:20;9.70;99.90
22716;DHT22;11525;51.152;4.456;2023-04-01T05:18:47;9.70;99.90
22716;DHT22;11525;51.152;4.456;2023-04-01T05:21:14;9.70;99.90
22716;DHT22;11525;51.152;4.456;2023-04-01T05:23:40;9.70;99.90
22716;DHT22;11525;51.152;4.456;2023-04-01T05:26:09;9.70;99.90
22716;DHT22;11525;51.152;4.456;2023-04-01T05:28:36;9.90;99.90
22716;DHT22;11525;51.152;4.456;2023-04-01T05:31:03;9.90;99.90
22716;DHT22;11525;51.152;4.456;2023-04-01T05:33:30;10.00;99.90
22716;DHT22;11525;51.152;4.456;2023-04-01T05:35:56;10.00;99.90
22716;DHT22;11525;51.152;4.456;2023-04-01T05:38:22;9.80;99.90
22716;DHT22;11525;51.152;4.456;2023-04-01T05:40:48;9.70;99.90
22716;DHT22;11525;51.152;4.456;2023-04-01T05:43:13;9.70;99.90
22716;DHT22;11525;51.152;4.456;2023-04-01T05:45:39;9.60;99.90
22716;DHT22;11525;51.152;4.456;2023-04-01T05:48:05;9.60;99.90
22716;DHT22;11525;51.152;4.456;2023-04-01T05:50:31;9.70;99.90
22716;DHT22;11525;51.152;4.456;2023-04-01T05:52:56;9.80;99.90
22716;DHT22;11525;51.152;4.456;2023-04-01T05:55:22;9.80;99.90
22716;DHT22;11525;51.152;4.456;2023-04-01T05:57:48;9.80;99.90
22716;DHT22;11525;51.152;4.456;2023-04-01T06:00:16;9.90;99.90
22716;DHT22;11525;51.152;4.456;2023-04-01T06:02:42;9.80;99.90
22716;DHT22;11525;51.152;4.456;2023-04-01T06:07:40;9.70;99.90
22716;DHT22;11525;51.152;4.456;2023-04-01T06:11:12;9.70;99.90
22716;DHT22;11525;51.152;4.456;2023-04-01T06:18:59;9.80;99.90
22716;DHT22;11525;51.152;4.456;2023-04-01T06:38:56;9.80;99.90
22716;DHT22;11525;51.152;4.456;2023-04-01T06:41:51;9.70;99.90
22716;DHT22;11525;51.152;4.456;2023-04-01T06:44:43;9.70;99.90
22716;DHT22;11525;51.152;4.456;2023-04-01T06:58:24;9.90;99.90
22716;DHT22;11525;51.152;4.456;2023-04-01T07:00:54;9.80;99.90
22716;DHT22;11525;51.152;4.456;2023-04-01T07:03:29;9.80;99.90
22716;DHT22;11525;51.152;4.456;2023-04-01T07:06:03;9.70;99.90
22716;DHT22;11525;51.152;4.456;2023-04-01T07:08:34;9.90;99.90
22716;DHT22;11525;51.152;4.456;2023-04-01T07:11:06;9.90;99.90
22716;DHT22;11525;51.152;4.456;2023-04-01T07:13:41;9.80;99.90
22716;DHT22;11525;51.152;4.456;2023-04-01T07:19:02;10.00;99.90
22716;DHT22;11525;51.152;4.456;2023-04-01T07:24:04;10.00;99.90
22716;DHT22;11525;51.152;4.456;2023-04-01T07:26:31;10.10;99.90
22716;DHT22;11525;51.152;4.456;2023-04-01T07:28:57;10.40;99.90
22716;DHT22;11525;51.152;4.456;2023-04-01T07:45:28;11.60;99.90
22716;DHT22;11525;51.152;4.456;2023-04-01T07:53:43;11.60;99.90
22716;DHT22;11525;51.152;4.456;2023-04-01T07:56:49;11.60;99.90
22716;DHT22;11525;51.152;4.456;2023-04-01T08:02:13;11.60;99.90
22716;DHT22;11525;51.152;4.456;2023-04-01T08:07:30;11.80;99.90
22716;DHT22;11525;51.152;4.456;2023-04-01T08:18:39;11.80;99.90
22716;DHT22;11525;51.152;4.456;2023-04-01T08:21:17;11.80;99.90
22716;DHT22;11525;51.152;4.456;2023-04-01T08:23:48;11.90;99.90
22716;DHT22;11525;51.152;4.456;2023-04-01T08:26:39;11.90;99.90
22716;DHT22;11525;51.152;4.456;2023-04-01T08:29:15;11.60;99.90
22716;DHT22;11525;51.152;4.456;2023-04-01T08:34:37;11.30;99.90
22716;DHT22;11525;51.152;4.456;2023-04-01T08:37:17;11.20;99.90
22716;DHT22;11525;51.152;4.456;2023-04-01T08:39:50;11.00;99.90
22716;DHT22;11525;51.152;4.456;2023-04-01T08:58:54;10.70;99.90
22716;DHT22;11525;51.152;4.456;2023-04-01T09:01:58;10.80;99.90
22716;DHT22;11525;51.152;4.456;2023-04-01T09:10:49;10.70;99.90
22716;DHT22;11525;51.152;4.456;2023-04-01T09:27:53;10.60;99.90
22716;DHT22;11525;51.152;4.456;2023-04-01T09:30:37;10.60;99.90
22716;DHT22;11525;51.152;4.456;2023-04-01T09:33:24;10.70;99.90
22716;DHT22;11525;51.152;4.456;2023-04-01T09:38:57;10.80;99.90
22716;DHT22;11525;51.152;4.456;2023-04-01T09:41:35;10.80;99.90
22716;DHT22;11525;51.152;4.456;2023-04-01T09:44:31;10.60;99.90
22716;DHT22;11525;51.152;4.456;2023-04-01T09:53:04;11.20;99.90
22716;DHT22;11525;51.152;4.456;2023-04-01T10:09:08;11.10;99.90
22716;DHT22;11525;51.152;4.456;2023-04-01T10:12:14;11.00;99.90
22716;DHT22;11525;51.152;4.456;2023-04-01T10:17:46;11.20;99.90
22716;DHT22;11525;51.152;4.456;2023-04-01T10:26:03;11.50;99.90
22716;DHT22;11525;51.152;4.456;2023-04-01T10:29:27;11.40;99.90
22716;DHT22;11525;51.152;4.456;2023-04-01T10:43:04;11.10;99.90
22716;DHT22;11525;51.152;4.456;2023-04-01T10:53:46;11.40;99.90
22716;DHT22;11525;51.152;4.456;2023-04-01T10:56:56;11.50;99.90
22716;DHT22;11525;51.152;4.456;2023-04-01T11:08:11;11.30;99.90
22716;DHT22;11525;51.152;4.456;2023-04-01T11:33:03;11.00;99.90
22716;DHT22;11525;51.152;4.456;2023-04-01T11:35:38;11.10;99.90
22716;DHT22;11525;51.152;4.456;2023-04-01T11:41:23;11.00;99.90
22716;DHT22;11525;51.152;4.456;2023-04-01T12:03:37;11.00;99.90
22716;DHT22;11525;51.152;4.456;2023-04-01T12:21:00;11.50;99.90
22716;DHT22;11525;51.152;4.456;2023-04-01T12:30:05;11.70;99.90
22716;DHT22;11525;51.152;4.456;2023-04-01T12:35:26;11.60;99.90
22716;DHT22;11525;51.152;4.456;2023-04-01T12:43:59;11.80;99.90
22716;DHT22;11525;51.152;4.456;2023-04-01T13:03:16;12.00;99.90
22716;DHT22;11525;51.152;4.456;2023-04-01T13:08:35;11.90;99.90
22716;DHT22;11525;51.152;4.456;2023-04-01T13:11:09;12.00;99.90
22716;DHT22;11525;51.152;4.456;2023-04-01T13:16:29;12.00;99.90
22716;DHT22;11525;51.152;4.456;2023-04-01T13:22:10;11.90;99.90
22716;DHT22;11525;51.152;4.456;2023-04-01T13:24:44;11.80;99.90
22716;DHT22;11525;51.152;4.456;2023-04-01T13:27:16;12.10;99.90
22716;DHT22;11525;51.152;4.456;2023-04-01T13:30:23;12.10;99.90
22716;DHT22;11525;51.152;4.456;2023-04-01T13:38:39;11.80;99.90
22716;DHT22;11525;51.152;4.456;2023-04-01T13:43:45;11.80;99.90
22716;DHT22;11525;51.152;4.456;2023-04-01T13:54:37;11.50;99.90
22716;DHT22;11525;51.152;4.456;2023-04-01T13:57:26;11.40;99.90
22716;DHT22;11525;51.152;4.456;2023-04-01T14:00:23;11.40;99.90
22716;DHT22;11525;51.152;4.456;2023-04-01T14:06:09;11.70;99.90
22716;DHT22;11525;51.152;4.456;2023-04-01T14:08:59;11.70;99.90
22716;DHT22;11525;51.152;4.456;2023-04-01T14:11:52;11.80;99.90
22716;DHT22;11525;51.152;4.456;2023-04-01T14:36:14;11.60;99.90
22716;DHT22;11525;51.152;4.456;2023-04-01T14:44:29;11.60;99.90
22716;DHT22;11525;51.152;4.456;2023-04-01T14:49:55;11.60;99.90
22716;DHT22;11525;51.152;4.456;2023-04-01T14:52:31;11.50;99.90
22716;DHT22;11525;51.152;4.456;2023-04-01T14:55:00;11.20;99.90
22716;DHT22;11525;51.152;4.456;2023-04-01T14:57:31;11.20;99.90
22716;DHT22;11525;51.152;4.456;2023-04-01T15:00:12;11.10;99.90
22716;DHT22;11525;51.152;4.456;2023-04-01T15:16:24;11.20;99.90
22716;DHT22;11525;51.152;4.456;2023-04-01T15:19:16;11.20;99.90
22716;DHT22;11525;51.152;4.456;2023-04-01T15:25:21;11.20;99.90
22716;DHT22;11525;51.152;4.456;2023-04-01T15:28:05;11.20;99.90
22716;DHT22;11525;51.152;4.456;2023-04-01T15:30:44;11.10;99.90
22716;DHT22;11525;51.152;4.456;2023-04-01T15:38:48;11.10;99.90
22716;DHT22;11525;51.152;4.456;2023-04-01T15:41:16;11.00;99.90
22716;DHT22;11525;51.152;4.456;2023-04-01T15:43:45;11.10;99.90
22716;DHT22;11525;51.152;4.456;2023-04-01T15:49:07;10.80;99.90
22716;DHT22;11525;51.152;4.456;2023-04-01T15:52:13;10.70;99.90
22716;DHT22;11525;51.152;4.456;2023-04-01T15:54:46;10.60;99.90
22716;DHT22;11525;51.152;4.456;2023-04-01T16:02:49;10.30;99.90
22716;DHT22;11525;51.152;4.456;2023-04-01T16:08:33;10.30;99.90
22716;DHT22;11525;51.152;4.456;2023-04-01T16:27:40;10.50;99.90
22716;DHT22;11525;51.152;4.456;2023-04-01T16:30:37;10.50;99.90
22716;DHT22;11525;51.152;4.456;2023-04-01T16:33:19;10.60;99.90
22716;DHT22;11525;51.152;4.456;2023-04-01T16:38:48;10.40;99.90
22716;DHT22;11525;51.152;4.456;2023-04-01T16:41:24;10.40;99.90
22716;DHT22;11525;51.152;4.456;2023-04-01T16:46:43;10.30;99.90
22716;DHT22;11525;51.152;4.456;2023-04-01T16:51:48;10.60;99.90
22716;DHT22;11525;51.152;4.456;2023-04-01T16:59:53;10.40;99.90
22716;DHT22;11525;51.152;4.456;2023-04-01T17:02:25;10.30;99.90
22716;DHT22;11525;51.152;4.456;2023-04-01T17:05:08;10.30;99.90
22716;DHT22;11525;51.152;4.456;2023-04-01T17:08:09;10.30;99.90
22716;DHT22;11525;51.152;4.456;2023-04-01T17:30:36;10.50;99.90
22716;DHT22;11525;51.152;4.456;2023-04-01T17:33:27;10.60;99.90
22716;DHT22;11525;51.152;4.456;2023-04-01T17:36:08;10.50;99.90
22716;DHT22;11525;51.152;4.456;2023-04-01T17:52:42;9.90;99.90
22716;DHT22;11525;51.152;4.456;2023-04-01T17:58:39;9.80;99.90
22716;DHT22;11525;51.152;4.456;2023-04-01T18:07:10;9.70;99.90
22716;DHT22;11525;51.152;4.456;2023-04-01T18:20:54;10.00;99.90
22716;DHT22;11525;51.152;4.456;2023-04-01T18:23:26;9.90;99.90
22716;DHT22;11525;51.152;4.456;2023-04-01T18:26:04;9.90;99.90
22716;DHT22;11525;51.152;4.456;2023-04-01T18:28:35;9.80;99.90
22716;DHT22;11525;51.152;4.456;2023-04-01T18:33:53;9.90;99.90
22716;DHT22;11525;51.152;4.456;2023-04-01T18:36:46;10.00;99.90
22716;DHT22;11525;51.152;4.456;2023-04-01T18:39:22;9.90;99.90
22716;DHT22;11525;51.152;4.456;2023-04-01T18:42:00;9.90;99.90
22716;DHT22;11525;51.152;4.456;2023-04-01T18:52:34;9.90;99.90
22716;DHT22;11525;51.152;4.456;2023-04-01T18:57:49;9.80;99.90
22716;DHT22;11525;51.152;4.456;2023-04-01T19:00:32;9.80;99.90
22716;DHT22;11525;51.152;4.456;2023-04-01T19:03:07;9.90;99.90
22716;DHT22;11525;51.152;4.456;2023-04-01T19:05:37;10.00;99.90
22716;DHT22;11525;51.152;4.456;2023-04-01T19:08:31;10.00;99.90
22716;DHT22;11525;51.152;4.456;2023-04-01T19:11:47;10.00;99.90
22716;DHT22;11525;51.152;4.456;2023-04-01T19:22:18;10.00;99.90
22716;DHT22;11525;51.152;4.456;2023-04-01T19:28:03;10.10;99.90
22716;DHT22;11525;51.152;4.456;2023-04-01T19:30:46;10.00;99.90
22716;DHT22;11525;51.152;4.456;2023-04-01T19:33:33;10.00;99.90
22716;DHT22;11525;51.152;4.456;2023-04-01T19:36:03;10.00;99.90
22716;DHT22;11525;51.152;4.456;2023-04-01T19:38:39;10.10;99.90
22716;DHT22;11525;51.152;4.456;2023-04-01T19:41:32;10.20;99.90
22716;DHT22;11525;51.152;4.456;2023-04-01T19:47:21;10.30;99.90
22716;DHT22;11525;51.152;4.456;2023-04-01T19:52:35;10.30;99.90
22716;DHT22;11525;51.152;4.456;2023-04-01T20:00:24;10.50;99.90
22716;DHT22;11525;51.152;4.456;2023-04-01T20:06:27;10.60;99.90
22716;DHT22;11525;51.152;4.456;2023-04-01T20:12:03;10.50;99.90
22716;DHT22;11525;51.152;4.456;2023-04-01T20:15:04;10.40;99.90
22716;DHT22;11525;51.152;4.456;2023-04-01T20:25:23;10.60;99.90
22716;DHT22;11525;51.152;4.456;2023-04-01T20:36:15;10.20;99.90
22716;DHT22;11525;51.152;4.456;2023-04-01T20:39:03;10.20;99.90
22716;DHT22;11525;51.152;4.456;2023-04-01T20:41:52;10.10;99.90
22716;DHT22;11525;51.152;4.456;2023-04-01T20:44:55;10.10;99.90
22716;DHT22;11525;51.152;4.456;2023-04-01T20:58:24;10.10;99.90
22716;DHT22;11525;51.152;4.456;2023-04-01T21:03:54;10.00;99.90
22716;DHT22;11525;51.152;4.456;2023-04-01T21:20:33;10.10;99.90
22716;DHT22;11525;51.152;4.456;2023-04-01T21:26:30;10.10;99.90
22716;DHT22;11525;51.152;4.456;2023-04-01T21:29:36;9.90;99.90
22716;DHT22;11525;51.152;4.456;2023-04-01T21:48:11;9.80;99.90
22716;DHT22;11525;51.152;4.456;2023-04-01T21:50:45;9.80;99.90
22716;DHT22;11525;51.152;4.456;2023-04-01T21:53:34;9.70;99.90
22716;DHT22;11525;51.152;4.456;2023-04-01T21:56:28;9.60;99.90
22716;DHT22;11525;51.152;4.456;2023-04-01T22:01:36;9.60;99.90
22716;DHT22;11525;51.152;4.456;2023-04-01T22:07:00;9.60;99.90
22716;DHT22;11525;51.152;4.456;2023-04-01T22:09:42;9.60;99.90
22716;DHT22;11525;51.152;4.456;2023-04-01T22:15:16;9.50;99.90
22716;DHT22;11525;51.152;4.456;2023-04-01T22:20:23;9.50;99.90
22716;DHT22;11525;51.152;4.456;2023-04-01T22:25:59;9.40;99.90
22716;DHT22;11525;51.152;4.456;2023-04-01T22:28:42;9.30;99.90
22716;DHT22;11525;51.152;4.456;2023-04-01T22:31:13;9.30;99.90
22716;DHT22;11525;51.152;4.456;2023-04-01T22:45:27;9.20;99.90
22716;DHT22;11525;51.152;4.456;2023-04-01T22:50:42;9.20;99.90
22716;DHT22;11525;51.152;4.456;2023-04-01T22:56:09;9.20;99.90
22716;DHT22;11525;51.152;4.456;2023-04-01T22:58:55;9.20;99.90
22716;DHT22;11525;51.152;4.456;2023-04-01T23:01:27;9.20;99.90
22716;DHT22;11525;51.152;4.456;2023-04-01T23:03:56;9.20;99.90
22716;DHT22;11525;51.152;4.456;2023-04-01T23:06:27;9.20;99.90
22716;DHT22;11525;51.152;4.456;2023-04-01T23:11:55;9.20;99.90
22716;DHT22;11525;51.152;4.456;2023-04-01T23:38:17;8.80;99.90
22716;DHT22;11525;51.152;4.456;2023-04-01T23:40:44;8.70;99.90
22716;DHT22;11525;51.152;4.456;2023-04-01T23:43:34;8.80;99.90
22716;DHT22;11525;51.152;4.456;2023-04-01T23:46:02;8.80;99.90
22716;DHT22;11525;51.152;4.456;2023-04-01T23:48:35;8.90;99.90
22716;DHT22;11525;51.152;4.456;2023-04-01T23:51:02;8.80;99.90
22716;DHT22;11525;51.152;4.456;2023-04-01T23:53:32;8.80;99.90
22716;DHT22;11525;51.152;4.456;2023-04-01T23:55:58;8.60;99.90
22716;DHT22;11525;51.152;4.456;2023-04-01T23:58:45;8.50;99.90
